map of FBK home
FBK - Airport
Location
City:  Fairbanks/Ft Wainwright, Alaska, United States
Name:Ladd AAF Airport
ICAO:PAFB
IATA:FBK
FAA LID:FBK

Details
Type:Airport (Airfield)
Use:Military
Latitude:6450'12"N (64.836722)
Longitude:14736'58"W (-147.616221)
Datum:WGS 1984
Elevation:448 ft (137 m)
Variation:17.24E (WMM2015 magnetic declination)
-0.42 annual change
Runways:2
Longest:8576 × 150 ft (2614 × 45.5 m), paved

Time
Time Zone:UTC-9 (DST-8)
Local Time:

Weather
METAR:PAFB 181958Z AUTO 00000KT 9SM CLR 00/00 A2989 RMK AO2 SLP129 T10021005 $
TAF:PAFB 181200Z 1812/1918 09005KT 9999 FEW100 QNH2974INS
BECMG 1822/1823 09007KT 9999 SKC QNH2955INS
BECMG 1917/1918 07008KT 9999 SCT170 QNH2946INS TX07/1900Z TNM01/1815Z

Related Locations
Nearby:
Farthest:NZSP: 10685 mi / 17195 km
Amundsen-Scott South Pole Station [Jack F. Paulus Skiway], AQ

Find:

   beyond  
but within

Other Information
Maps:
NOTAMs:
Links:
Sources:

  
  • flag of United States
  • flag of Alaska
  

Sectional Chart

Flight Planning
at skyvector.com

Satellite Image

Google Maps Satellite view

 

Copyright © 2004-2018 Karl L. Swartz. All rights reserved.
The Great Circle Mapper name and logo are trademarks of the Great Circle Mapper.
All other trademarks mentioned herein belong to their respective owners.
Please see credits for attibutions and further copyright information.

  Follow gcmap on Facebook Follow gcmap on Twitter Follow gcmap on Google+ GCmap on LinkedIn

hCard Microformat

Geo Microformat